Time,TemperatureF,DewpointF,PressureIn,WindDirection,WindDirectionDegrees,WindSpeedMPH,WindSpeedGustMPH,Humidity,HourlyPrecipIn,Conditions,Clouds,dailyrainin,SoftwareType,DateUTC
2013-05-21 00:01:00,76.8,65.8,29.70,SSE,155,9.0,12.0,69,0.00,,,0.00,meteohub,2013-05-21 04:01:00,
2013-05-21 00:02:00,76.8,65.8,29.70,SSE,163,5.0,12.0,69,0.00,,,0.00,meteohub,2013-05-21 04:02:00,
2013-05-21 00:07:00,76.8,66.2,29.69,SSE,148,7.0,12.0,70,0.00,,,0.00,meteohub,2013-05-21 04:07:00,
2013-05-21 00:12:00,76.8,66.2,29.70,South,174,8.0,12.0,70,0.00,,,0.00,meteohub,2013-05-21 04:12:00,
2013-05-21 00:17:00,76.6,66.6,29.70,SSE,148,8.0,10.0,71,0.00,,,0.00,meteohub,2013-05-21 04:17:00,
2013-05-21 00:22:00,76.8,66.7,29.70,SSE,164,8.0,10.0,71,0.00,,,0.00,meteohub,2013-05-21 04:22:00,
2013-05-21 00:27:00,76.8,66.7,29.70,SSW,203,7.0,10.0,71,0.00,,,0.00,meteohub,2013-05-21 04:27:00,
2013-05-21 00:32:00,76.6,66.6,29.70,SSE,160,7.0,10.0,71,0.00,,,0.00,meteohub,2013-05-21 04:32:00,
2013-05-21 00:37:00,76.8,67.1,29.70,SSE,152,12.0,12.0,72,0.00,,,0.00,meteohub,2013-05-21 04:37:00,
2013-05-21 00:42:00,76.8,67.1,29.70,SSE,161,7.0,13.0,72,0.00,,,0.00,meteohub,2013-05-21 04:42:00,
2013-05-21 00:47:00,76.8,67.1,29.70,SSE,167,7.0,13.0,72,0.00,,,0.00,meteohub,2013-05-21 04:47:00,
2013-05-21 00:52:00,76.6,66.9,29.70,SSE,150,6.0,13.0,72,0.00,,,0.00,meteohub,2013-05-21 04:52:00,
2013-05-21 00:57:00,76.5,66.7,29.69,SSW,197,6.0,13.0,72,0.00,,,0.00,meteohub,2013-05-21 04:57:00,
2013-05-21 01:03:00,76.3,66.6,29.69,South,169,5.0,13.0,72,0.00,,,0.00,meteohub,2013-05-21 05:03:00,
2013-05-21 01:08:00,76.3,66.9,29.69,South,181,6.0,13.0,73,0.00,,,0.00,meteohub,2013-05-21 05:08:00,
2013-05-21 01:13:00,76.1,66.7,29.69,South,172,6.0,13.0,73,0.00,,,0.00,meteohub,2013-05-21 05:13:00,
2013-05-21 01:18:00,75.9,66.6,29.69,SSW,205,9.0,13.0,73,0.00,,,0.00,meteohub,2013-05-21 05:18:00,
2013-05-21 01:23:00,75.9,66.6,29.68,South,190,8.0,13.0,73,0.00,,,0.00,meteohub,2013-05-21 05:23:00,
2013-05-21 01:28:00,75.7,66.4,29.68,SE,142,6.0,10.0,73,0.00,,,0.00,meteohub,2013-05-21 05:28:00,
2013-05-21 01:33:00,75.7,66.9,29.68,South,184,8.0,10.0,74,0.00,,,0.00,meteohub,2013-05-21 05:33:00,
2013-05-21 01:38:00,75.7,66.4,29.69,SSW,197,5.0,10.0,73,0.00,,,0.00,meteohub,2013-05-21 05:38:00,
2013-05-21 01:43:00,75.6,66.7,29.69,SSW,200,5.0,10.0,74,0.00,,,0.00,meteohub,2013-05-21 05:43:00,
2013-05-21 01:48:00,75.4,66.6,29.68,South,173,7.0,10.0,74,0.00,,,0.00,meteohub,2013-05-21 05:48:00,
2013-05-21 01:53:00,75.0,66.6,29.68,SSW,198,8.0,10.0,75,0.00,,,0.00,meteohub,2013-05-21 05:53:00,
2013-05-21 01:58:00,75.0,66.6,29.67,SSE,166,5.0,12.0,75,0.00,,,0.00,meteohub,2013-05-21 05:58:00,
2013-05-21 02:03:00,75.2,66.7,29.67,SSE,160,6.0,12.0,75,0.00,,,0.00,meteohub,2013-05-21 06:03:00,
2013-05-21 02:09:00,75.4,66.6,29.67,SSW,205,8.0,12.0,74,0.00,,,0.00,meteohub,2013-05-21 06:09:00,
2013-05-21 02:14:00,75.4,66.6,29.67,SSE,155,8.0,12.0,74,0.00,,,0.00,meteohub,2013-05-21 06:14:00,
2013-05-21 02:19:00,75.6,66.7,29.67,South,181,8.0,12.0,74,0.00,,,0.00,meteohub,2013-05-21 06:19:00,
2013-05-21 02:24:00,75.4,66.6,29.67,South,170,7.0,12.0,74,0.00,,,0.00,meteohub,2013-05-21 06:24:00,
2013-05-21 02:29:00,75.4,66.6,29.67,SE,144,11.0,12.0,74,0.00,,,0.00,meteohub,2013-05-21 06:29:00,
2013-05-21 02:34:00,75.6,66.7,29.67,SSE,148,10.0,12.0,74,0.00,,,0.00,meteohub,2013-05-21 06:34:00,
2013-05-21 02:39:00,75.4,66.6,29.66,SSE,148,5.0,12.0,74,0.00,,,0.00,meteohub,2013-05-21 06:39:00,
2013-05-21 02:44:00,75.4,66.6,29.66,SE,146,9.0,12.0,74,0.00,,,0.00,meteohub,2013-05-21 06:44:00,
2013-05-21 02:49:00,75.4,66.6,29.67,SSE,153,10.0,12.0,74,0.00,,,0.00,meteohub,2013-05-21 06:49:00,
2013-05-21 02:54:00,75.4,66.6,29.66,South,176,5.0,13.0,74,0.00,,,0.00,meteohub,2013-05-21 06:54:00,
2013-05-21 02:59:00,75.2,66.7,29.70,SW,228,24.0,24.0,75,0.00,,,0.00,meteohub,2013-05-21 06:59:00,
2013-05-21 03:04:00,72.3,62.8,29.71,West,263,22.0,22.0,72,0.00,,,0.00,meteohub,2013-05-21 07:04:00,
2013-05-21 03:09:00,70.7,62.4,29.70,West,272,11.0,13.0,75,0.00,,,0.00,meteohub,2013-05-21 07:09:00,
2013-05-21 03:14:00,69.8,61.9,29.69,WSW,256,11.0,36.0,76,0.00,,,0.00,meteohub,2013-05-21 07:14:00,
2013-05-21 03:19:00,69.3,62.1,29.69,WSW,256,7.0,36.0,78,0.00,,,0.00,meteohub,2013-05-21 07:19:00,
2013-05-21 03:24:00,68.7,61.9,29.69,West,275,10.0,36.0,79,0.00,,,0.00,meteohub,2013-05-21 07:24:00,
2013-05-21 03:29:00,68.2,61.7,29.68,WSW,256,9.0,19.0,80,0.00,,,0.00,meteohub,2013-05-21 07:29:00,
2013-05-21 03:34:00,67.8,61.7,29.69,West,276,7.0,19.0,81,0.00,,,0.00,meteohub,2013-05-21 07:34:00,
2013-05-21 03:39:00,67.5,61.7,29.68,WNW,283,5.0,19.0,82,0.00,,,0.00,meteohub,2013-05-21 07:39:00,
2013-05-21 03:45:00,67.1,61.7,29.69,West,280,5.0,19.0,83,0.00,,,0.00,meteohub,2013-05-21 07:45:00,
2013-05-21 03:50:00,66.7,61.7,29.68,West,270,4.0,19.0,84,0.00,,,0.00,meteohub,2013-05-21 07:50:00,
2013-05-21 03:55:00,66.6,61.9,29.68,West,271,3.0,9.0,85,0.00,,,0.00,meteohub,2013-05-21 07:55:00,
2013-05-21 04:00:00,66.2,61.9,29.68,West,264,3.0,9.0,86,0.00,,,0.00,meteohub,2013-05-21 08:00:00,
2013-05-21 04:05:00,66.0,62.1,29.68,West,278,4.0,9.0,87,0.00,,,0.00,meteohub,2013-05-21 08:05:00,
2013-05-21 04:10:00,65.8,62.2,29.69,WSW,248,3.0,9.0,88,0.00,,,0.00,meteohub,2013-05-21 08:10:00,
2013-05-21 04:15:00,65.5,62.2,29.69,SW,236,6.0,8.0,89,0.00,,,0.00,meteohub,2013-05-21 08:15:00,
2013-05-21 04:20:00,65.1,62.1,29.69,WSW,257,3.0,8.0,90,0.00,,,0.00,meteohub,2013-05-21 08:20:00,
2013-05-21 04:25:00,65.1,62.1,29.69,West,271,3.0,8.0,90,0.00,,,0.00,meteohub,2013-05-21 08:25:00,
2013-05-21 04:30:00,64.9,61.9,29.70,South,180,4.0,6.0,90,0.01,,,0.00,meteohub,2013-05-21 08:30:00,
2013-05-21 04:35:00,64.9,62.2,29.71,SW,214,3.0,6.0,91,0.01,,,0.00,meteohub,2013-05-21 08:35:00,
2013-05-21 04:40:00,64.9,61.9,29.71,SSW,200,2.0,6.0,90,0.01,,,0.00,meteohub,2013-05-21 08:40:00,
2013-05-21 04:45:00,64.8,62.1,29.70,WSW,239,8.0,8.0,91,0.01,,,0.09,meteohub,2013-05-21 08:45:00,
2013-05-21 04:50:00,64.6,61.9,29.69,West,261,5.0,6.0,91,0.01,,,0.09,meteohub,2013-05-21 08:50:00,
2013-05-21 04:55:00,64.4,62.1,29.69,West,271,6.0,13.0,92,0.20,,,0.09,meteohub,2013-05-21 08:55:00,
2013-05-21 05:00:00,64.2,61.9,29.70,SW,229,5.0,13.0,92,0.20,,,0.09,meteohub,2013-05-21 09:00:00,
2013-05-21 05:05:00,64.2,62.2,29.69,SSW,203,2.0,13.0,93,0.20,,,0.09,meteohub,2013-05-21 09:05:00,
2013-05-21 05:10:00,64.2,61.9,29.69,South,174,3.0,13.0,92,0.20,,,0.28,meteohub,2013-05-21 09:10:00,
2013-05-21 05:15:00,64.0,62.1,29.68,ESE,118,7.0,13.0,93,0.20,,,0.28,meteohub,2013-05-21 09:15:00,
2013-05-21 05:20:00,64.0,62.1,29.67,ESE,115,7.0,13.0,93,0.33,,,0.28,meteohub,2013-05-21 09:20:00,
2013-05-21 05:25:00,64.0,62.2,29.67,SE,127,9.0,9.0,94,0.33,,,0.28,meteohub,2013-05-21 09:25:00,
2013-05-21 05:30:00,63.9,62.1,29.67,East,101,8.0,9.0,94,0.33,,,0.28,meteohub,2013-05-21 09:30:00,
2013-05-21 05:35:00,63.9,62.1,29.66,East,89,7.0,9.0,94,0.33,,,0.28,meteohub,2013-05-21 09:35:00,
2013-05-21 05:41:00,63.9,62.4,29.64,East,98,4.0,9.0,95,0.33,,,0.36,meteohub,2013-05-21 09:41:00,
2013-05-21 05:46:00,63.7,62.2,29.64,ESE,108,8.0,9.0,95,0.33,,,0.36,meteohub,2013-05-21 09:46:00,
2013-05-21 05:51:00,63.9,62.4,29.65,ENE,77,8.0,9.0,95,0.20,,,0.36,meteohub,2013-05-21 09:51:00,
2013-05-21 05:56:00,63.9,62.4,29.65,ESE,116,5.0,14.0,95,0.20,,,0.36,meteohub,2013-05-21 09:56:00,
2013-05-21 06:01:00,63.9,62.4,29.65,SE,130,5.0,14.0,95,0.20,,,0.36,meteohub,2013-05-21 10:01:00,
2013-05-21 06:06:00,64.0,62.2,29.65,ESE,113,4.0,14.0,94,0.20,,,0.36,meteohub,2013-05-21 10:06:00,
2013-05-21 06:11:00,64.2,62.4,29.66,SSE,152,4.0,14.0,94,0.20,,,0.37,meteohub,2013-05-21 10:11:00,
2013-05-21 06:16:00,64.4,62.6,29.66,South,176,2.0,14.0,94,0.20,,,0.37,meteohub,2013-05-21 10:16:00,
2013-05-21 06:21:00,64.4,62.6,29.67,SSE,155,3.0,14.0,94,0.20,,,0.37,meteohub,2013-05-21 10:21:00,
2013-05-21 06:26:00,64.6,62.8,29.66,SSE,167,4.0,7.0,94,0.03,,,0.37,meteohub,2013-05-21 10:26:00,
2013-05-21 06:31:00,64.6,62.8,29.67,SSE,155,4.0,7.0,94,0.03,,,0.37,meteohub,2013-05-21 10:31:00,
2013-05-21 06:36:00,64.6,62.8,29.68,South,175,3.0,7.0,94,0.03,,,0.37,meteohub,2013-05-21 10:36:00,
2013-05-21 06:41:00,64.6,62.8,29.68,SE,138,7.0,7.0,94,0.03,,,0.37,meteohub,2013-05-21 10:41:00,
2013-05-21 06:46:00,64.6,62.8,29.68,SE,145,4.0,7.0,94,0.03,,,0.37,meteohub,2013-05-21 10:46:00,
2013-05-21 06:51:00,64.6,62.8,29.68,SW,229,5.0,7.0,94,0.03,,,0.37,meteohub,2013-05-21 10:51:00,
2013-05-21 06:56:00,64.6,62.8,29.68,SSW,197,5.0,7.0,94,0.03,,,0.37,meteohub,2013-05-21 10:56:00,
2013-05-21 07:01:00,64.4,62.6,29.68,SSE,159,4.0,7.0,94,0.03,,,0.37,meteohub,2013-05-21 11:01:00,
2013-05-21 07:06:00,64.4,62.6,29.67,SSW,204,5.0,7.0,94,0.00,,,0.37,meteohub,2013-05-21 11:06:00,
2013-05-21 07:11:00,64.6,62.8,29.66,SSE,147,6.0,9.0,94,0.00,,,0.37,meteohub,2013-05-21 11:11:00,
2013-05-21 07:17:00,64.9,62.8,29.66,SSE,163,5.0,9.0,93,0.00,,,0.37,meteohub,2013-05-21 11:17:00,
2013-05-21 07:22:00,65.3,63.1,29.66,SSW,201,4.0,9.0,93,0.00,,,0.37,meteohub,2013-05-21 11:22:00,
2013-05-21 07:27:00,65.5,63.1,29.66,South,178,5.0,9.0,92,0.00,,,0.37,meteohub,2013-05-21 11:27:00,
2013-05-21 07:32:00,65.7,63.3,29.66,South,187,5.0,9.0,92,0.00,,,0.37,meteohub,2013-05-21 11:32:00,
2013-05-21 07:37:00,65.7,63.3,29.66,SSW,212,7.0,9.0,92,0.00,,,0.37,meteohub,2013-05-21 11:37:00,
2013-05-21 07:42:00,65.8,63.5,29.66,South,190,4.0,9.0,92,0.00,,,0.37,meteohub,2013-05-21 11:42:00,
2013-05-21 07:47:00,66.0,63.7,29.66,SSW,203,6.0,9.0,92,0.00,,,0.37,meteohub,2013-05-21 11:47:00,
2013-05-21 07:52:00,66.4,63.7,29.66,SSW,206,4.0,9.0,91,0.00,,,0.37,meteohub,2013-05-21 11:52:00,
2013-05-21 07:57:00,66.6,63.9,29.66,SSW,206,6.0,9.0,91,0.00,,,0.37,meteohub,2013-05-21 11:57:00,
2013-05-21 08:02:00,66.7,64.0,29.66,South,177,5.0,9.0,91,0.00,,,0.37,meteohub,2013-05-21 12:02:00,
2013-05-21 08:07:00,66.7,63.7,29.67,SE,139,8.0,9.0,90,0.00,,,0.37,meteohub,2013-05-21 12:07:00,
2013-05-21 08:12:00,66.4,63.3,29.67,SSE,155,9.0,9.0,90,0.00,,,0.37,meteohub,2013-05-21 12:12:00,
2013-05-21 08:17:00,66.4,63.7,29.67,South,169,6.0,9.0,91,0.00,,,0.37,meteohub,2013-05-21 12:17:00,
2013-05-21 08:22:00,66.6,63.9,29.67,South,184,9.0,9.0,91,0.00,,,0.37,meteohub,2013-05-21 12:22:00,
2013-05-21 08:27:00,66.7,64.0,29.68,SSW,197,12.0,12.0,91,0.00,,,0.37,meteohub,2013-05-21 12:27:00,
2013-05-21 08:32:00,67.1,64.4,29.68,South,183,5.0,14.0,91,0.00,,,0.37,meteohub,2013-05-21 12:32:00,
2013-05-21 08:38:00,67.3,64.2,29.68,South,183,7.0,14.0,90,0.00,,,0.37,meteohub,2013-05-21 12:38:00,
2013-05-21 08:43:00,67.6,64.2,29.68,South,180,5.0,14.0,89,0.00,,,0.37,meteohub,2013-05-21 12:43:00,
2013-05-21 08:48:00,67.8,64.2,29.68,SSW,205,8.0,14.0,88,0.00,,,0.37,meteohub,2013-05-21 12:48:00,
2013-05-21 08:53:00,68.2,64.4,29.68,South,176,11.0,14.0,88,0.00,,,0.37,meteohub,2013-05-21 12:53:00,
2013-05-21 08:58:00,68.4,64.6,29.68,SSW,203,9.0,14.0,88,0.00,,,0.37,meteohub,2013-05-21 12:58:00,
2013-05-21 09:03:00,68.4,64.4,29.68,SW,222,6.0,14.0,87,0.00,,,0.37,meteohub,2013-05-21 13:03:00,
2013-05-21 09:08:00,68.0,64.0,29.68,SSW,211,12.0,14.0,87,0.00,,,0.37,meteohub,2013-05-21 13:08:00,
2013-05-21 09:13:00,68.0,64.4,29.68,SSW,200,6.0,14.0,88,0.00,,,0.37,meteohub,2013-05-21 13:13:00,
2013-05-21 09:18:00,68.0,64.0,29.68,South,180,7.0,14.0,87,0.00,,,0.37,meteohub,2013-05-21 13:18:00,
2013-05-21 09:23:00,68.0,64.4,29.68,South,191,10.0,14.0,88,0.00,,,0.37,meteohub,2013-05-21 13:23:00,
2013-05-21 09:28:00,68.2,64.2,29.68,SW,218,12.0,14.0,87,0.00,,,0.37,meteohub,2013-05-21 13:28:00,
2013-05-21 09:33:00,68.4,64.4,29.69,SSW,205,12.0,16.0,87,0.00,,,0.37,meteohub,2013-05-21 13:33:00,
2013-05-21 09:38:00,68.5,64.2,29.69,SSW,213,14.0,16.0,86,0.00,,,0.37,meteohub,2013-05-21 13:38:00,
2013-05-21 09:43:00,68.7,64.4,29.69,SW,215,13.0,16.0,86,0.00,,,0.37,meteohub,2013-05-21 13:43:00,
2013-05-21 09:48:00,68.9,63.9,29.69,SSW,197,8.0,16.0,84,0.00,,,0.37,meteohub,2013-05-21 13:48:00,
2013-05-21 09:53:00,69.3,64.6,29.69,WSW,248,6.0,16.0,85,0.00,,,0.37,meteohub,2013-05-21 13:53:00,
2013-05-21 09:58:00,69.3,64.2,29.69,SW,233,11.0,16.0,84,0.00,,,0.37,meteohub,2013-05-21 13:58:00,
2013-05-21 10:03:00,69.4,64.0,29.69,SW,233,16.0,16.0,83,0.00,,,0.37,meteohub,2013-05-21 14:03:00,
2013-05-21 10:08:00,69.4,64.0,29.70,SW,222,7.0,16.0,83,0.00,,,0.37,meteohub,2013-05-21 14:08:00,
2013-05-21 10:13:00,69.4,63.7,29.69,SE,138,12.0,16.0,82,0.00,,,0.37,meteohub,2013-05-21 14:13:00,
2013-05-21 10:19:00,69.4,64.0,29.69,South,191,4.0,16.0,83,0.00,,,0.37,meteohub,2013-05-21 14:19:00,
2013-05-21 10:24:00,69.6,64.2,29.70,SW,225,12.0,16.0,83,0.00,,,0.37,meteohub,2013-05-21 14:24:00,
2013-05-21 10:29:00,69.6,63.9,29.70,SW,226,7.0,16.0,82,0.00,,,0.37,meteohub,2013-05-21 14:29:00,
2013-05-21 10:34:00,69.8,64.0,29.70,SSW,197,9.0,15.0,82,0.00,,,0.37,meteohub,2013-05-21 14:34:00,
2013-05-21 10:39:00,69.8,63.7,29.69,SSW,208,10.0,15.0,81,0.00,,,0.37,meteohub,2013-05-21 14:39:00,
2013-05-21 10:44:00,69.8,64.0,29.69,SW,229,9.0,15.0,82,0.00,,,0.37,meteohub,2013-05-21 14:44:00,
2013-05-21 10:49:00,70.0,63.9,29.69,SW,228,8.0,15.0,81,0.00,,,0.37,meteohub,2013-05-21 14:49:00,
2013-05-21 10:54:00,70.2,64.0,29.69,SSW,208,10.0,15.0,81,0.00,,,0.37,meteohub,2013-05-21 14:54:00,
2013-05-21 10:59:00,70.3,64.2,29.68,SW,228,10.0,15.0,81,0.00,,,0.37,meteohub,2013-05-21 14:59:00,
2013-05-21 11:04:00,70.9,64.8,29.68,SW,218,6.0,16.0,81,0.00,,,0.37,meteohub,2013-05-21 15:04:00,
2013-05-21 11:09:00,71.1,64.9,29.68,SW,221,7.0,16.0,81,0.00,,,0.37,meteohub,2013-05-21 15:09:00,
2013-05-21 11:15:00,71.2,65.1,29.68,SSW,205,9.0,16.0,81,0.00,,,0.37,meteohub,2013-05-21 15:15:00,
2013-05-21 11:20:00,71.4,64.9,29.68,WSW,255,6.0,16.0,80,0.00,,,0.37,meteohub,2013-05-21 15:20:00,
2013-05-21 11:25:00,72.0,65.1,29.68,SSW,210,5.0,16.0,79,0.00,,,0.37,meteohub,2013-05-21 15:25:00,
2013-05-21 11:30:00,72.3,64.8,29.68,SSW,212,11.0,16.0,77,0.00,,,0.37,meteohub,2013-05-21 15:30:00,
2013-05-21 11:35:00,72.1,65.3,29.68,SSW,197,11.0,14.0,79,0.00,,,0.37,meteohub,2013-05-21 15:35:00,
2013-05-21 11:40:00,72.0,64.8,29.69,SW,218,11.0,14.0,78,0.00,,,0.37,meteohub,2013-05-21 15:40:00,
2013-05-21 11:45:00,72.0,64.4,29.68,WSW,242,5.0,14.0,77,0.00,,,0.37,meteohub,2013-05-21 15:45:00,
2013-05-21 11:50:00,72.1,64.9,29.68,SW,222,12.0,14.0,78,0.00,,,0.37,meteohub,2013-05-21 15:50:00,
2013-05-21 11:55:00,72.3,65.5,29.68,SSE,166,7.0,14.0,79,0.00,,,0.37,meteohub,2013-05-21 15:55:00,
2013-05-21 12:00:00,72.5,65.3,29.68,SW,225,10.0,16.0,78,0.00,,,0.37,meteohub,2013-05-21 16:00:00,
2013-05-21 12:05:00,72.7,65.1,29.68,SSW,197,9.0,16.0,77,0.00,,,0.37,meteohub,2013-05-21 16:05:00,
2013-05-21 12:10:00,72.7,65.8,29.68,SSE,167,8.0,16.0,79,0.00,,,0.37,meteohub,2013-05-21 16:10:00,
2013-05-21 12:15:00,73.0,65.5,29.68,SSE,160,10.0,16.0,77,0.00,,,0.37,meteohub,2013-05-21 16:15:00,
2013-05-21 12:20:00,73.2,65.1,29.68,South,186,7.0,16.0,76,0.00,,,0.37,meteohub,2013-05-21 16:20:00,
2013-05-21 12:25:00,73.8,66.4,29.68,SSW,194,12.0,16.0,78,0.00,,,0.37,meteohub,2013-05-21 16:25:00,
2013-05-21 12:30:00,73.9,66.2,29.68,SSE,163,9.0,16.0,77,0.00,,,0.37,meteohub,2013-05-21 16:30:00,
2013-05-21 12:35:00,74.1,66.0,29.68,South,181,11.0,16.0,76,0.00,,,0.37,meteohub,2013-05-21 16:35:00,
2013-05-21 12:40:00,74.1,65.3,29.68,SW,221,10.0,15.0,74,0.00,,,0.37,meteohub,2013-05-21 16:40:00,
2013-05-21 12:45:00,74.5,66.0,29.67,SSW,195,4.0,15.0,75,0.00,,,0.37,meteohub,2013-05-21 16:45:00,
2013-05-21 12:50:00,74.8,65.7,29.67,SSW,211,11.0,15.0,73,0.00,,,0.37,meteohub,2013-05-21 16:50:00,
2013-05-21 12:55:00,75.0,66.2,29.67,SSW,213,13.0,15.0,74,0.00,,,0.37,meteohub,2013-05-21 16:55:00,
2013-05-21 13:00:00,75.2,66.4,29.67,SSW,197,9.0,15.0,74,0.00,,,0.37,meteohub,2013-05-21 17:00:00,
2013-05-21 13:05:00,75.2,66.4,29.67,SSE,167,7.0,15.0,74,0.00,,,0.37,meteohub,2013-05-21 17:05:00,
2013-05-21 13:10:00,75.6,65.8,29.67,SSW,201,9.0,15.0,72,0.00,,,0.37,meteohub,2013-05-21 17:10:00,
2013-05-21 13:15:00,75.7,66.4,29.67,SW,229,7.0,15.0,73,0.00,,,0.37,meteohub,2013-05-21 17:15:00,
2013-05-21 13:21:00,76.3,66.6,29.67,South,178,6.0,15.0,72,0.00,,,0.37,meteohub,2013-05-21 17:21:00,
2013-05-21 13:26:00,76.3,66.2,29.67,SSW,200,9.0,15.0,71,0.00,,,0.37,meteohub,2013-05-21 17:26:00,
2013-05-21 13:31:00,76.1,66.7,29.67,SW,236,12.0,15.0,73,0.00,,,0.37,meteohub,2013-05-21 17:31:00,
2013-05-21 13:36:00,76.3,66.6,29.67,SW,221,15.0,15.0,72,0.00,,,0.37,meteohub,2013-05-21 17:36:00,
2013-05-21 13:41:00,76.3,66.6,29.67,SSW,208,12.0,15.0,72,0.00,,,0.37,meteohub,2013-05-21 17:41:00,
2013-05-21 13:46:00,76.3,66.2,29.67,SSW,205,18.0,18.0,71,0.00,,,0.37,meteohub,2013-05-21 17:46:00,
2013-05-21 13:51:00,76.3,66.2,29.66,West,270,12.0,15.0,71,0.00,,,0.37,meteohub,2013-05-21 17:51:00,
2013-05-21 13:56:00,76.5,66.0,29.66,SSW,201,12.0,20.0,70,0.00,,,0.37,meteohub,2013-05-21 17:56:00,
2013-05-21 14:01:00,76.5,66.4,29.66,SW,214,11.0,20.0,71,0.00,,,0.37,meteohub,2013-05-21 18:01:00,
2013-05-21 14:06:00,76.8,64.9,29.67,SSW,208,15.0,20.0,67,0.00,,,0.37,meteohub,2013-05-21 18:06:00,
2013-05-21 14:11:00,76.6,64.9,29.66,SSW,210,6.0,20.0,67,0.00,,,0.37,meteohub,2013-05-21 18:11:00,
2013-05-21 14:16:00,76.8,64.9,29.66,SW,218,10.0,20.0,67,0.00,,,0.37,meteohub,2013-05-21 18:16:00,
2013-05-21 14:21:00,77.0,64.8,29.66,SSW,211,10.0,20.0,66,0.00,,,0.37,meteohub,2013-05-21 18:21:00,
2013-05-21 14:26:00,76.8,64.6,29.66,South,188,15.0,19.0,66,0.00,,,0.37,meteohub,2013-05-21 18:26:00,
2013-05-21 14:31:00,76.6,65.3,29.66,SSW,200,10.0,19.0,68,0.00,,,0.37,meteohub,2013-05-21 18:31:00,
2013-05-21 14:36:00,76.6,65.3,29.66,SSW,207,7.0,19.0,68,0.00,,,0.37,meteohub,2013-05-21 18:36:00,
2013-05-21 14:41:00,76.6,65.3,29.66,SW,234,16.0,19.0,68,0.00,,,0.37,meteohub,2013-05-21 18:41:00,
2013-05-21 14:46:00,76.5,65.1,29.66,SSW,195,6.0,19.0,68,0.00,,,0.37,meteohub,2013-05-21 18:46:00,
2013-05-21 14:51:00,76.6,65.3,29.66,SSW,204,13.0,19.0,68,0.00,,,0.37,meteohub,2013-05-21 18:51:00,
2013-05-21 14:57:00,76.6,65.7,29.66,SW,214,18.0,19.0,69,0.00,,,0.37,meteohub,2013-05-21 18:57:00,
2013-05-21 15:02:00,76.3,64.9,29.67,SSW,194,14.0,19.0,68,0.00,,,0.37,meteohub,2013-05-21 19:02:00,
2013-05-21 15:07:00,76.5,65.5,29.67,SSW,212,13.0,19.0,69,0.00,,,0.37,meteohub,2013-05-21 19:07:00,
2013-05-21 15:12:00,76.8,65.8,29.67,SW,231,10.0,20.0,69,0.00,,,0.37,meteohub,2013-05-21 19:12:00,
2013-05-21 15:17:00,77.2,65.3,29.67,SW,232,13.0,20.0,67,0.00,,,0.37,meteohub,2013-05-21 19:17:00,
2013-05-21 15:22:00,77.0,66.0,29.66,SSW,211,15.0,20.0,69,0.00,,,0.37,meteohub,2013-05-21 19:22:00,
2013-05-21 15:27:00,77.2,66.2,29.67,SW,224,10.0,20.0,69,0.00,,,0.37,meteohub,2013-05-21 19:27:00,
2013-05-21 15:32:00,77.4,66.4,29.67,SW,225,6.0,20.0,69,0.00,,,0.37,meteohub,2013-05-21 19:32:00,
2013-05-21 15:37:00,77.2,66.2,29.66,West,264,10.0,20.0,69,0.00,,,0.37,meteohub,2013-05-21 19:37:00,
2013-05-21 15:42:00,77.2,66.2,29.66,WSW,250,14.0,20.0,69,0.00,,,0.37,meteohub,2013-05-21 19:42:00,
2013-05-21 15:47:00,77.0,66.0,29.67,WSW,256,11.0,20.0,69,0.00,,,0.37,meteohub,2013-05-21 19:47:00,
2013-05-21 15:52:00,77.2,66.6,29.67,WSW,258,7.0,17.0,70,0.00,,,0.37,meteohub,2013-05-21 19:52:00,
2013-05-21 15:57:00,77.4,66.0,29.67,WSW,250,8.0,17.0,68,0.00,,,0.37,meteohub,2013-05-21 19:57:00,
2013-05-21 16:02:00,77.4,64.2,29.67,WSW,245,14.0,17.0,64,0.00,,,0.37,meteohub,2013-05-21 20:02:00,
2013-05-21 16:07:00,77.2,65.3,29.66,West,259,5.0,17.0,67,0.00,,,0.37,meteohub,2013-05-21 20:07:00,
2013-05-21 16:12:00,77.5,65.3,29.66,SW,226,4.0,17.0,66,0.00,,,0.37,meteohub,2013-05-21 20:12:00,
2013-05-21 16:17:00,78.3,66.0,29.66,SW,236,10.0,17.0,66,0.00,,,0.37,meteohub,2013-05-21 20:17:00,
2013-05-21 16:22:00,78.1,65.3,29.66,South,169,11.0,17.0,65,0.00,,,0.37,meteohub,2013-05-21 20:22:00,
2013-05-21 16:27:00,78.1,66.2,29.65,SSW,211,8.0,17.0,67,0.00,,,0.37,meteohub,2013-05-21 20:27:00,
2013-05-21 16:33:00,78.4,65.7,29.65,SW,234,11.0,16.0,65,0.00,,,0.37,meteohub,2013-05-21 20:33:00,
2013-05-21 16:38:00,78.3,65.1,29.65,SSW,212,10.0,16.0,64,0.00,,,0.37,meteohub,2013-05-21 20:38:00,
2013-05-21 16:43:00,77.9,65.1,29.65,SSW,195,9.0,16.0,65,0.00,,,0.37,meteohub,2013-05-21 20:43:00,
2013-05-21 16:48:00,78.3,65.5,29.65,South,173,10.0,16.0,65,0.00,,,0.37,meteohub,2013-05-21 20:48:00,
2013-05-21 16:53:00,78.4,65.3,29.65,SSW,205,7.0,16.0,64,0.00,,,0.37,meteohub,2013-05-21 20:53:00,
2013-05-21 16:58:00,78.4,66.2,29.65,South,191,11.0,16.0,66,0.00,,,0.37,meteohub,2013-05-21 20:58:00,
2013-05-21 17:03:00,78.1,65.3,29.65,SW,229,7.0,16.0,65,0.00,,,0.37,meteohub,2013-05-21 21:03:00,
2013-05-21 17:08:00,78.1,65.3,29.65,SSW,200,5.0,16.0,65,0.00,,,0.37,meteohub,2013-05-21 21:08:00,
2013-05-21 17:13:00,78.1,65.3,29.65,South,179,7.0,15.0,65,0.00,,,0.37,meteohub,2013-05-21 21:13:00,
2013-05-21 17:18:00,78.3,65.1,29.65,SSW,202,9.0,15.0,64,0.00,,,0.37,meteohub,2013-05-21 21:18:00,
2013-05-21 17:23:00,79.0,65.8,29.65,SSW,199,10.0,15.0,64,0.00,,,0.37,meteohub,2013-05-21 21:23:00,
2013-05-21 17:28:00,79.3,66.6,29.65,SSW,193,7.0,15.0,65,0.00,,,0.37,meteohub,2013-05-21 21:28:00,
2013-05-21 17:33:00,79.9,66.6,29.65,SSW,212,5.0,14.0,64,0.00,,,0.37,meteohub,2013-05-21 21:33:00,
2013-05-21 17:38:00,80.2,66.9,29.65,SSE,153,6.0,14.0,64,0.00,,,0.37,meteohub,2013-05-21 21:38:00,
2013-05-21 17:43:00,80.2,66.0,29.65,South,188,12.0,14.0,62,0.00,,,0.37,meteohub,2013-05-21 21:43:00,
2013-05-21 17:48:00,80.2,66.0,29.64,SSW,194,6.0,14.0,62,0.00,,,0.37,meteohub,2013-05-21 21:48:00,
2013-05-21 17:53:00,80.4,65.7,29.64,SSW,206,12.0,14.0,61,0.00,,,0.37,meteohub,2013-05-21 21:53:00,
2013-05-21 17:58:00,80.1,65.5,29.64,SSW,209,11.0,14.0,61,0.00,,,0.37,meteohub,2013-05-21 21:58:00,
2013-05-21 18:03:00,80.2,65.5,29.64,SW,229,6.0,14.0,61,0.00,,,0.37,meteohub,2013-05-21 22:03:00,
2013-05-21 18:08:00,80.4,65.7,29.64,SSW,205,9.0,14.0,61,0.00,,,0.37,meteohub,2013-05-21 22:08:00,
2013-05-21 18:13:00,80.4,65.7,29.64,SSW,203,6.0,14.0,61,0.00,,,0.37,meteohub,2013-05-21 22:13:00,
2013-05-21 18:18:00,80.6,65.5,29.64,SW,218,4.0,17.0,60,0.00,,,0.37,meteohub,2013-05-21 22:18:00,
2013-05-21 18:23:00,81.0,66.7,29.64,South,190,9.0,17.0,62,0.00,,,0.37,meteohub,2013-05-21 22:23:00,
2013-05-21 18:29:00,80.8,66.6,29.63,SW,234,10.0,17.0,62,0.00,,,0.37,meteohub,2013-05-21 22:29:00,
2013-05-21 18:34:00,80.4,65.3,29.63,SW,215,11.0,17.0,60,0.00,,,0.37,meteohub,2013-05-21 22:34:00,
2013-05-21 18:39:00,80.2,65.5,29.63,SW,226,2.0,17.0,61,0.00,,,0.37,meteohub,2013-05-21 22:39:00,
2013-05-21 18:44:00,79.9,65.7,29.63,SSW,200,4.0,13.0,62,0.00,,,0.37,meteohub,2013-05-21 22:44:00,
2013-05-21 18:49:00,79.5,65.3,29.63,South,169,8.0,13.0,62,0.00,,,0.37,meteohub,2013-05-21 22:49:00,
2013-05-21 18:54:00,79.3,65.7,29.63,South,191,8.0,13.0,63,0.00,,,0.37,meteohub,2013-05-21 22:54:00,
2013-05-21 18:59:00,79.5,65.8,29.63,SW,218,9.0,13.0,63,0.00,,,0.37,meteohub,2013-05-21 22:59:00,
2013-05-21 19:04:00,79.5,65.8,29.63,WSW,253,3.0,13.0,63,0.00,,,0.37,meteohub,2013-05-21 23:04:00,
2013-05-21 19:09:00,79.3,66.0,29.63,West,262,4.0,13.0,64,0.00,,,0.37,meteohub,2013-05-21 23:09:00,
2013-05-21 19:14:00,79.5,66.2,29.63,SW,236,4.0,13.0,64,0.00,,,0.37,meteohub,2013-05-21 23:14:00,
2013-05-21 19:19:00,79.9,66.2,29.63,WSW,253,5.0,13.0,63,0.00,,,0.37,meteohub,2013-05-21 23:19:00,
2013-05-21 19:24:00,80.1,65.8,29.63,West,267,5.0,13.0,62,0.00,,,0.37,meteohub,2013-05-21 23:24:00,
2013-05-21 19:29:00,80.1,65.8,29.63,West,273,6.0,8.0,62,0.00,,,0.37,meteohub,2013-05-21 23:29:00,
2013-05-21 19:34:00,79.9,65.7,29.63,West,261,3.0,8.0,62,0.00,,,0.37,meteohub,2013-05-21 23:34:00,
2013-05-21 19:39:00,79.7,66.0,29.63,West,261,3.0,8.0,63,0.00,,,0.37,meteohub,2013-05-21 23:39:00,
2013-05-21 19:44:00,79.5,65.8,29.63,SW,236,5.0,9.0,63,0.00,,,0.37,meteohub,2013-05-21 23:44:00,
2013-05-21 19:49:00,79.3,65.7,29.63,WSW,253,5.0,9.0,63,0.00,,,0.37,meteohub,2013-05-21 23:49:00,
2013-05-21 19:54:00,79.3,66.0,29.63,West,259,4.0,9.0,64,0.00,,,0.37,meteohub,2013-05-21 23:54:00,
2013-05-21 19:59:00,79.3,66.0,29.63,West,276,3.0,11.0,64,0.00,,,0.37,meteohub,2013-05-21 23:59:00,
2013-05-21 20:04:00,79.2,65.5,29.63,WSW,255,6.0,11.0,63,0.00,,,0.37,meteohub,2013-05-22 00:04:00,
2013-05-21 20:10:00,79.0,65.8,29.63,WSW,256,5.0,11.0,64,0.00,,,0.37,meteohub,2013-05-22 00:10:00,
2013-05-21 20:15:00,78.8,65.7,29.63,West,265,3.0,11.0,64,0.00,,,0.37,meteohub,2013-05-22 00:15:00,
2013-05-21 20:20:00,78.6,65.8,29.62,WSW,253,5.0,8.0,65,0.00,,,0.37,meteohub,2013-05-22 00:20:00,
2013-05-21 20:25:00,78.6,65.8,29.62,West,278,1.0,8.0,65,0.00,,,0.37,meteohub,2013-05-22 00:25:00,
2013-05-21 20:30:00,78.1,65.3,29.63,WSW,255,5.0,8.0,65,0.00,,,0.37,meteohub,2013-05-22 00:30:00,
2013-05-21 20:35:00,77.7,65.5,29.63,WSW,253,2.0,8.0,66,0.00,,,0.37,meteohub,2013-05-22 00:35:00,
2013-05-21 20:40:00,77.4,65.5,29.63,WSW,250,2.0,5.0,67,0.00,,,0.37,meteohub,2013-05-22 00:40:00,
2013-05-21 20:45:00,77.0,65.7,29.63,West,264,1.0,5.0,68,0.00,,,0.37,meteohub,2013-05-22 00:45:00,
2013-05-21 20:50:00,76.6,65.7,29.63,SW,236,2.0,5.0,69,0.00,,,0.37,meteohub,2013-05-22 00:50:00,
2013-05-21 20:55:00,76.3,65.8,29.64,SW,226,2.0,5.0,70,0.00,,,0.37,meteohub,2013-05-22 00:55:00,
2013-05-21 21:00:00,75.9,65.5,29.64,West,260,1.0,3.0,70,0.00,,,0.37,meteohub,2013-05-22 01:00:00,
2013-05-21 21:05:00,75.6,65.5,29.64,WSW,242,0.0,3.0,71,0.00,,,0.37,meteohub,2013-05-22 01:05:00,
2013-05-21 21:10:00,75.2,65.5,29.64,WSW,239,1.0,3.0,72,0.00,,,0.37,meteohub,2013-05-22 01:10:00,
2013-05-21 21:15:00,74.8,65.7,29.63,SSW,211,0.0,3.0,73,0.00,,,0.37,meteohub,2013-05-22 01:15:00,
2013-05-21 21:20:00,74.3,65.5,29.63,SSW,211,0.0,3.0,74,0.00,,,0.37,meteohub,2013-05-22 01:20:00,
2013-05-21 21:25:00,73.6,65.1,29.63,SSW,212,0.0,3.0,75,0.00,,,0.37,meteohub,2013-05-22 01:25:00,
2013-05-21 21:31:00,73.0,64.9,29.64,SSW,212,0.0,3.0,76,0.00,,,0.37,meteohub,2013-05-22 01:31:00,
2013-05-21 21:36:00,72.7,65.1,29.64,SSW,199,1.0,3.0,77,0.00,,,0.37,meteohub,2013-05-22 01:36:00,
2013-05-21 21:41:00,72.3,65.1,29.65,SSW,201,0.0,2.0,78,0.00,,,0.37,meteohub,2013-05-22 01:41:00,
2013-05-21 21:46:00,72.1,65.3,29.65,SSW,203,1.0,2.0,79,0.00,,,0.37,meteohub,2013-05-22 01:46:00,
2013-05-21 21:51:00,72.1,65.3,29.65,SW,221,0.0,2.0,79,0.00,,,0.37,meteohub,2013-05-22 01:51:00,
2013-05-21 21:56:00,72.1,65.3,29.65,SW,218,0.0,2.0,79,0.00,,,0.37,meteohub,2013-05-22 01:56:00,
2013-05-21 22:01:00,71.8,64.9,29.65,SSE,152,0.0,2.0,79,0.00,,,0.37,meteohub,2013-05-22 02:01:00,
2013-05-21 22:06:00,71.8,65.3,29.66,SE,127,1.0,2.0,80,0.00,,,0.37,meteohub,2013-05-22 02:06:00,
2013-05-21 22:11:00,71.4,65.3,29.65,ESE,113,2.0,2.0,81,0.00,,,0.37,meteohub,2013-05-22 02:11:00,
2013-05-21 22:16:00,71.8,65.3,29.65,SE,124,2.0,3.0,80,0.00,,,0.37,meteohub,2013-05-22 02:16:00,
2013-05-21 22:21:00,72.0,65.1,29.65,SE,138,2.0,3.0,79,0.00,,,0.37,meteohub,2013-05-22 02:21:00,
2013-05-21 22:26:00,72.0,65.5,29.65,SW,229,0.0,3.0,80,0.00,,,0.37,meteohub,2013-05-22 02:26:00,
2013-05-21 22:31:00,72.0,65.5,29.66,SW,233,0.0,4.0,80,0.00,,,0.37,meteohub,2013-05-22 02:31:00,
2013-05-21 22:36:00,71.8,65.3,29.66,WSW,240,0.0,4.0,80,0.00,,,0.37,meteohub,2013-05-22 02:36:00,
2013-05-21 22:41:00,71.4,64.9,29.66,South,188,1.0,4.0,80,0.00,,,0.37,meteohub,2013-05-22 02:41:00,
2013-05-21 22:46:00,71.4,64.9,29.66,SSE,161,0.0,4.0,80,0.00,,,0.37,meteohub,2013-05-22 02:46:00,
2013-05-21 22:51:00,71.2,65.1,29.66,SSE,161,0.0,3.0,81,0.00,,,0.37,meteohub,2013-05-22 02:51:00,
2013-05-21 22:57:00,70.7,64.6,29.66,SSE,166,0.0,3.0,81,0.00,,,0.37,meteohub,2013-05-22 02:57:00,
2013-05-21 23:02:00,70.5,64.8,29.66,SSE,166,0.0,3.0,82,0.00,,,0.37,meteohub,2013-05-22 03:02:00,
2013-05-21 23:07:00,70.2,64.8,29.66,South,191,4.0,4.0,83,0.00,,,0.37,meteohub,2013-05-22 03:07:00,
2013-05-21 23:12:00,70.5,64.8,29.66,SSE,168,5.0,5.0,82,0.00,,,0.37,meteohub,2013-05-22 03:12:00,
2013-05-21 23:17:00,70.9,64.8,29.66,SE,136,2.0,4.0,81,0.00,,,0.37,meteohub,2013-05-22 03:17:00,
2013-05-21 23:22:00,71.1,64.9,29.65,ESE,118,3.0,4.0,81,0.00,,,0.37,meteohub,2013-05-22 03:22:00,
2013-05-21 23:27:00,71.1,64.9,29.65,SE,134,3.0,4.0,81,0.00,,,0.37,meteohub,2013-05-22 03:27:00,
2013-05-21 23:32:00,71.2,65.1,29.65,ESE,122,1.0,7.0,81,0.00,,,0.37,meteohub,2013-05-22 03:32:00,
2013-05-21 23:37:00,70.7,64.9,29.65,SSE,161,1.0,7.0,82,0.00,,,0.37,meteohub,2013-05-22 03:37:00,
2013-05-21 23:42:00,70.2,64.8,29.65,ESE,122,2.0,7.0,83,0.00,,,0.37,meteohub,2013-05-22 03:42:00,
2013-05-21 23:47:00,69.6,64.9,29.65,SE,125,3.0,7.0,85,0.00,,,0.37,meteohub,2013-05-22 03:47:00,
2013-05-21 23:52:00,69.6,64.6,29.64,ESE,115,4.0,4.0,84,0.00,,,0.37,meteohub,2013-05-22 03:52:00,
2013-05-21 23:57:00,69.4,64.4,29.64,SE,132,1.0,4.0,84,0.00,,,0.37,meteohub,2013-05-22 03:57:00,